sensor_id;sensor_type;location;lat;lon;timestamp;P1;durP1;ratioP1;P2;durP2;ratioP2
29246;SDS011;16272;48.188;9.964;2023-02-28T00:00:27;7.23;;;2.27;;
29246;SDS011;16272;48.188;9.964;2023-02-28T00:02:52;7.72;;;2.60;;
29246;SDS011;16272;48.188;9.964;2023-02-28T00:05:19;7.80;;;2.30;;
29246;SDS011;16272;48.188;9.964;2023-02-28T00:07:47;7.43;;;2.00;;
29246;SDS011;16272;48.188;9.964;2023-02-28T00:10:15;6.63;;;2.15;;
29246;SDS011;16272;48.188;9.964;2023-02-28T00:12:47;8.93;;;2.30;;
29246;SDS011;16272;48.188;9.964;2023-02-28T00:15:14;8.20;;;2.00;;
29246;SDS011;16272;48.188;9.964;2023-02-28T00:17:39;7.53;;;1.90;;
29246;SDS011;16272;48.188;9.964;2023-02-28T00:20:05;6.75;;;2.05;;
29246;SDS011;16272;48.188;9.964;2023-02-28T00:22:33;9.30;;;2.10;;
29246;SDS011;16272;48.188;9.964;2023-02-28T00:24:59;5.97;;;1.88;;
29246;SDS011;16272;48.188;9.964;2023-02-28T00:27:24;7.18;;;2.00;;
29246;SDS011;16272;48.188;9.964;2023-02-28T00:29:50;7.27;;;1.90;;
29246;SDS011;16272;48.188;9.964;2023-02-28T00:32:15;7.40;;;2.17;;
29246;SDS011;16272;48.188;9.964;2023-02-28T00:34:40;8.93;;;2.23;;
29246;SDS011;16272;48.188;9.964;2023-02-28T00:37:06;9.80;;;2.73;;
29246;SDS011;16272;48.188;9.964;2023-02-28T00:39:40;7.25;;;1.88;;
29246;SDS011;16272;48.188;9.964;2023-02-28T00:42:06;8.73;;;2.30;;
29246;SDS011;16272;48.188;9.964;2023-02-28T00:44:32;6.77;;;2.00;;
29246;SDS011;16272;48.188;9.964;2023-02-28T00:46:57;6.50;;;1.77;;
29246;SDS011;16272;48.188;9.964;2023-02-28T00:49:24;7.80;;;2.10;;
29246;SDS011;16272;48.188;9.964;2023-02-28T00:51:51;8.65;;;2.35;;
29246;SDS011;16272;48.188;9.964;2023-02-28T00:54:18;7.63;;;2.33;;
29246;SDS011;16272;48.188;9.964;2023-02-28T00:56:43;9.40;;;2.60;;
29246;SDS011;16272;48.188;9.964;2023-02-28T00:59:08;7.87;;;2.67;;
29246;SDS011;16272;48.188;9.964;2023-02-28T01:01:34;7.70;;;2.40;;
29246;SDS011;16272;48.188;9.964;2023-02-28T01:03:59;8.35;;;2.40;;
29246;SDS011;16272;48.188;9.964;2023-02-28T01:06:25;7.60;;;2.17;;
29246;SDS011;16272;48.188;9.964;2023-02-28T01:08:50;7.93;;;2.10;;
29246;SDS011;16272;48.188;9.964;2023-02-28T01:11:16;8.73;;;2.67;;
29246;SDS011;16272;48.188;9.964;2023-02-28T01:13:43;7.10;;;2.30;;
29246;SDS011;16272;48.188;9.964;2023-02-28T01:16:10;8.70;;;2.47;;
29246;SDS011;16272;48.188;9.964;2023-02-28T01:18:36;9.13;;;2.37;;
29246;SDS011;16272;48.188;9.964;2023-02-28T01:21:06;8.40;;;2.83;;
29246;SDS011;16272;48.188;9.964;2023-02-28T01:23:36;7.27;;;2.40;;
29246;SDS011;16272;48.188;9.964;2023-02-28T01:26:05;7.33;;;2.63;;
29246;SDS011;16272;48.188;9.964;2023-02-28T01:28:32;5.63;;;1.50;;
29246;SDS011;16272;48.188;9.964;2023-02-28T01:30:57;7.05;;;2.20;;
29246;SDS011;16272;48.188;9.964;2023-02-28T01:33:23;8.23;;;2.20;;
29246;SDS011;16272;48.188;9.964;2023-02-28T01:35:48;8.33;;;2.07;;
29246;SDS011;16272;48.188;9.964;2023-02-28T01:38:13;11.10;;;2.40;;
29246;SDS011;16272;48.188;9.964;2023-02-28T01:40:39;7.95;;;2.40;;
29246;SDS011;16272;48.188;9.964;2023-02-28T01:43:07;7.40;;;2.00;;
29246;SDS011;16272;48.188;9.964;2023-02-28T01:45:45;8.07;;;2.20;;
29246;SDS011;16272;48.188;9.964;2023-02-28T01:48:10;7.60;;;2.43;;
29246;SDS011;16272;48.188;9.964;2023-02-28T01:50:39;7.82;;;2.42;;
29246;SDS011;16272;48.188;9.964;2023-02-28T01:53:12;6.17;;;1.87;;
29246;SDS011;16272;48.188;9.964;2023-02-28T01:55:42;8.43;;;2.38;;
29246;SDS011;16272;48.188;9.964;2023-02-28T01:58:11;6.82;;;2.00;;
29246;SDS011;16272;48.188;9.964;2023-02-28T02:00:37;9.03;;;2.53;;
29246;SDS011;16272;48.188;9.964;2023-02-28T02:03:07;8.73;;;2.33;;
29246;SDS011;16272;48.188;9.964;2023-02-28T02:05:37;7.15;;;2.25;;
29246;SDS011;16272;48.188;9.964;2023-02-28T02:08:08;6.95;;;2.38;;
29246;SDS011;16272;48.188;9.964;2023-02-28T02:10:47;6.82;;;2.00;;
29246;SDS011;16272;48.188;9.964;2023-02-28T02:31:54;7.32;;;1.90;;
29246;SDS011;16272;48.188;9.964;2023-02-28T02:34:45;7.05;;;2.03;;
29246;SDS011;16272;48.188;9.964;2023-02-28T02:40:04;8.10;;;2.47;;
29246;SDS011;16272;48.188;9.964;2023-02-28T02:42:41;7.63;;;2.40;;
29246;SDS011;16272;48.188;9.964;2023-02-28T02:45:15;7.15;;;2.47;;
29246;SDS011;16272;48.188;9.964;2023-02-28T02:47:42;7.45;;;2.05;;
29246;SDS011;16272;48.188;9.964;2023-02-28T02:50:11;6.90;;;2.03;;
29246;SDS011;16272;48.188;9.964;2023-02-28T02:52:45;7.97;;;2.73;;
29246;SDS011;16272;48.188;9.964;2023-02-28T02:55:16;6.85;;;1.95;;
29246;SDS011;16272;48.188;9.964;2023-02-28T02:57:53;7.38;;;2.10;;
29246;SDS011;16272;48.188;9.964;2023-02-28T03:00:25;7.20;;;2.20;;
29246;SDS011;16272;48.188;9.964;2023-02-28T03:02:55;6.47;;;2.03;;
29246;SDS011;16272;48.188;9.964;2023-02-28T03:05:29;5.73;;;1.10;;
29246;SDS011;16272;48.188;9.964;2023-02-28T03:08:02;7.32;;;1.90;;
29246;SDS011;16272;48.188;9.964;2023-02-28T03:13:08;9.32;;;1.75;;
29246;SDS011;16272;48.188;9.964;2023-02-28T03:15:58;5.45;;;1.70;;
29246;SDS011;16272;48.188;9.964;2023-02-28T03:18:36;6.60;;;2.03;;
29246;SDS011;16272;48.188;9.964;2023-02-28T03:23:54;9.50;;;2.83;;
29246;SDS011;16272;48.188;9.964;2023-02-28T03:26:29;7.50;;;2.20;;
29246;SDS011;16272;48.188;9.964;2023-02-28T03:31:30;10.13;;;2.47;;
29246;SDS011;16272;48.188;9.964;2023-02-28T03:36:37;6.35;;;1.80;;
29246;SDS011;16272;48.188;9.964;2023-02-28T03:39:10;7.43;;;2.13;;
29246;SDS011;16272;48.188;9.964;2023-02-28T03:44:46;7.03;;;2.20;;
29246;SDS011;16272;48.188;9.964;2023-02-28T03:47:16;9.63;;;2.90;;
29246;SDS011;16272;48.188;9.964;2023-02-28T03:49:52;7.78;;;2.30;;
29246;SDS011;16272;48.188;9.964;2023-02-28T03:52:22;9.65;;;2.28;;
29246;SDS011;16272;48.188;9.964;2023-02-28T03:54:52;8.30;;;2.85;;
29246;SDS011;16272;48.188;9.964;2023-02-28T03:57:24;7.57;;;2.13;;
29246;SDS011;16272;48.188;9.964;2023-02-28T03:59:56;6.70;;;2.25;;
29246;SDS011;16272;48.188;9.964;2023-02-28T04:02:29;7.32;;;2.10;;
29246;SDS011;16272;48.188;9.964;2023-02-28T04:04:54;7.03;;;2.50;;
29246;SDS011;16272;48.188;9.964;2023-02-28T04:07:20;9.32;;;2.88;;
29246;SDS011;16272;48.188;9.964;2023-02-28T04:09:45;9.03;;;3.33;;
29246;SDS011;16272;48.188;9.964;2023-02-28T04:12:11;8.00;;;2.50;;
29246;SDS011;16272;48.188;9.964;2023-02-28T04:14:36;6.57;;;1.93;;
29246;SDS011;16272;48.188;9.964;2023-02-28T04:17:02;6.97;;;2.80;;
29246;SDS011;16272;48.188;9.964;2023-02-28T04:19:27;9.17;;;2.73;;
29246;SDS011;16272;48.188;9.964;2023-02-28T04:21:53;7.00;;;2.10;;
29246;SDS011;16272;48.188;9.964;2023-02-28T04:24:19;6.72;;;2.10;;
29246;SDS011;16272;48.188;9.964;2023-02-28T04:26:50;9.10;;;2.80;;
29246;SDS011;16272;48.188;9.964;2023-02-28T04:29:22;8.93;;;3.05;;
29246;SDS011;16272;48.188;9.964;2023-02-28T04:31:49;6.33;;;1.73;;
29246;SDS011;16272;48.188;9.964;2023-02-28T04:34:14;9.35;;;2.85;;
29246;SDS011;16272;48.188;9.964;2023-02-28T04:36:40;8.40;;;2.80;;
29246;SDS011;16272;48.188;9.964;2023-02-28T04:39:05;8.77;;;2.77;;
29246;SDS011;16272;48.188;9.964;2023-02-28T04:41:31;6.07;;;1.93;;
29246;SDS011;16272;48.188;9.964;2023-02-28T04:43:56;9.07;;;2.60;;
29246;SDS011;16272;48.188;9.964;2023-02-28T04:46:22;9.97;;;3.53;;
29246;SDS011;16272;48.188;9.964;2023-02-28T04:48:48;6.80;;;2.08;;
29246;SDS011;16272;48.188;9.964;2023-02-28T04:51:14;8.43;;;2.87;;
29246;SDS011;16272;48.188;9.964;2023-02-28T04:53:41;8.35;;;2.25;;
29246;SDS011;16272;48.188;9.964;2023-02-28T04:56:08;9.30;;;3.20;;
29246;SDS011;16272;48.188;9.964;2023-02-28T04:58:36;8.52;;;3.05;;
29246;SDS011;16272;48.188;9.964;2023-02-28T05:01:03;10.07;;;3.17;;
29246;SDS011;16272;48.188;9.964;2023-02-28T05:03:42;8.90;;;2.97;;
29246;SDS011;16272;48.188;9.964;2023-02-28T05:06:08;7.35;;;2.72;;
29246;SDS011;16272;48.188;9.964;2023-02-28T05:08:35;9.57;;;3.45;;
29246;SDS011;16272;48.188;9.964;2023-02-28T05:11:00;8.07;;;2.77;;
29246;SDS011;16272;48.188;9.964;2023-02-28T05:13:26;8.90;;;3.20;;
29246;SDS011;16272;48.188;9.964;2023-02-28T05:15:52;10.43;;;3.13;;
29246;SDS011;16272;48.188;9.964;2023-02-28T05:18:18;11.27;;;3.13;;
29246;SDS011;16272;48.188;9.964;2023-02-28T05:20:44;10.77;;;3.17;;
29246;SDS011;16272;48.188;9.964;2023-02-28T05:23:13;10.23;;;3.15;;
29246;SDS011;16272;48.188;9.964;2023-02-28T05:25:39;9.40;;;3.42;;
29246;SDS011;16272;48.188;9.964;2023-02-28T05:28:05;8.20;;;2.57;;
29246;SDS011;16272;48.188;9.964;2023-02-28T05:30:31;9.85;;;3.72;;
29246;SDS011;16272;48.188;9.964;2023-02-28T05:32:57;10.93;;;3.27;;
29246;SDS011;16272;48.188;9.964;2023-02-28T05:35:22;9.35;;;3.10;;
29246;SDS011;16272;48.188;9.964;2023-02-28T05:37:48;8.73;;;2.40;;
29246;SDS011;16272;48.188;9.964;2023-02-28T05:40:14;8.73;;;2.57;;
29246;SDS011;16272;48.188;9.964;2023-02-28T05:42:42;9.82;;;3.33;;
29246;SDS011;16272;48.188;9.964;2023-02-28T05:45:07;9.27;;;3.53;;
29246;SDS011;16272;48.188;9.964;2023-02-28T05:47:34;10.48;;;4.07;;
29246;SDS011;16272;48.188;9.964;2023-02-28T05:50:00;11.93;;;4.38;;
29246;SDS011;16272;48.188;9.964;2023-02-28T05:52:26;10.27;;;3.63;;
29246;SDS011;16272;48.188;9.964;2023-02-28T05:54:51;11.85;;;3.83;;
29246;SDS011;16272;48.188;9.964;2023-02-28T05:57:16;9.93;;;3.43;;
29246;SDS011;16272;48.188;9.964;2023-02-28T05:59:42;10.67;;;3.93;;
29246;SDS011;16272;48.188;9.964;2023-02-28T06:02:11;12.20;;;3.73;;
29246;SDS011;16272;48.188;9.964;2023-02-28T06:04:37;8.50;;;2.88;;
29246;SDS011;16272;48.188;9.964;2023-02-28T06:07:03;9.07;;;3.43;;
29246;SDS011;16272;48.188;9.964;2023-02-28T06:09:28;11.00;;;3.67;;
29246;SDS011;16272;48.188;9.964;2023-02-28T06:11:54;12.00;;;3.80;;
29246;SDS011;16272;48.188;9.964;2023-02-28T06:14:20;12.60;;;4.43;;
29246;SDS011;16272;48.188;9.964;2023-02-28T06:16:46;11.77;;;4.00;;
29246;SDS011;16272;48.188;9.964;2023-02-28T06:19:11;10.53;;;4.50;;
29246;SDS011;16272;48.188;9.964;2023-02-28T06:21:37;9.85;;;3.50;;
29246;SDS011;16272;48.188;9.964;2023-02-28T06:24:04;10.17;;;3.90;;
29246;SDS011;16272;48.188;9.964;2023-02-28T06:26:30;11.90;;;4.45;;
29246;SDS011;16272;48.188;9.964;2023-02-28T06:28:57;12.45;;;3.88;;
29246;SDS011;16272;48.188;9.964;2023-02-28T06:31:22;10.33;;;3.77;;
29246;SDS011;16272;48.188;9.964;2023-02-28T06:33:48;12.47;;;4.53;;
29246;SDS011;16272;48.188;9.964;2023-02-28T06:36:14;11.83;;;4.07;;
29246;SDS011;16272;48.188;9.964;2023-02-28T06:38:41;12.43;;;4.63;;
29246;SDS011;16272;48.188;9.964;2023-02-28T06:41:07;12.38;;;4.32;;
29246;SDS011;16272;48.188;9.964;2023-02-28T06:43:34;9.80;;;2.93;;
29246;SDS011;16272;48.188;9.964;2023-02-28T06:46:03;11.77;;;4.07;;
29246;SDS011;16272;48.188;9.964;2023-02-28T06:48:30;9.35;;;3.30;;
29246;SDS011;16272;48.188;9.964;2023-02-28T06:51:06;12.50;;;4.43;;
29246;SDS011;16272;48.188;9.964;2023-02-28T06:53:33;14.45;;;4.88;;
29246;SDS011;16272;48.188;9.964;2023-02-28T06:55:59;12.90;;;4.97;;
29246;SDS011;16272;48.188;9.964;2023-02-28T06:58:24;14.70;;;4.40;;
29246;SDS011;16272;48.188;9.964;2023-02-28T07:00:50;11.67;;;4.17;;
29246;SDS011;16272;48.188;9.964;2023-02-28T07:03:17;13.65;;;4.72;;
29246;SDS011;16272;48.188;9.964;2023-02-28T07:05:43;11.13;;;4.35;;
29246;SDS011;16272;48.188;9.964;2023-02-28T07:08:09;9.03;;;3.07;;
29246;SDS011;16272;48.188;9.964;2023-02-28T07:10:36;12.70;;;4.57;;
29246;SDS011;16272;48.188;9.964;2023-02-28T07:13:03;14.33;;;4.30;;
29246;SDS011;16272;48.188;9.964;2023-02-28T07:15:29;13.75;;;5.35;;
29246;SDS011;16272;48.188;9.964;2023-02-28T07:17:54;15.77;;;5.40;;
29246;SDS011;16272;48.188;9.964;2023-02-28T07:20:19;13.60;;;5.33;;
29246;SDS011;16272;48.188;9.964;2023-02-28T07:22:44;16.05;;;7.07;;
29246;SDS011;16272;48.188;9.964;2023-02-28T07:25:10;13.27;;;5.10;;
29246;SDS011;16272;48.188;9.964;2023-02-28T07:27:35;15.20;;;5.57;;
29246;SDS011;16272;48.188;9.964;2023-02-28T07:30:01;13.87;;;4.50;;
29246;SDS011;16272;48.188;9.964;2023-02-28T07:32:29;14.82;;;5.63;;
29246;SDS011;16272;48.188;9.964;2023-02-28T07:34:54;17.70;;;6.87;;
29246;SDS011;16272;48.188;9.964;2023-02-28T07:37:20;14.83;;;5.10;;
29246;SDS011;16272;48.188;9.964;2023-02-28T07:39:45;12.63;;;4.63;;
29246;SDS011;16272;48.188;9.964;2023-02-28T07:42:10;15.60;;;5.50;;
29246;SDS011;16272;48.188;9.964;2023-02-28T07:44:37;14.50;;;4.67;;
29246;SDS011;16272;48.188;9.964;2023-02-28T07:47:08;14.93;;;5.05;;
29246;SDS011;16272;48.188;9.964;2023-02-28T07:49:37;16.67;;;6.50;;
29246;SDS011;16272;48.188;9.964;2023-02-28T07:52:03;15.02;;;5.97;;
29246;SDS011;16272;48.188;9.964;2023-02-28T07:54:30;13.25;;;5.05;;
29246;SDS011;16272;48.188;9.964;2023-02-28T07:56:55;15.87;;;5.63;;
29246;SDS011;16272;48.188;9.964;2023-02-28T07:59:20;14.20;;;5.43;;
29246;SDS011;16272;48.188;9.964;2023-02-28T08:01:46;13.70;;;5.23;;
29246;SDS011;16272;48.188;9.964;2023-02-28T08:04:11;14.20;;;5.93;;
29246;SDS011;16272;48.188;9.964;2023-02-28T08:06:36;10.77;;;4.30;;
29246;SDS011;16272;48.188;9.964;2023-02-28T08:09:02;19.23;;;6.13;;
29246;SDS011;16272;48.188;9.964;2023-02-28T08:11:28;14.43;;;4.95;;
29246;SDS011;16272;48.188;9.964;2023-02-28T08:13:54;15.27;;;5.63;;
29246;SDS011;16272;48.188;9.964;2023-02-28T08:16:20;15.52;;;6.57;;
29246;SDS011;16272;48.188;9.964;2023-02-28T08:18:46;17.00;;;6.20;;
29246;SDS011;16272;48.188;9.964;2023-02-28T08:21:12;17.50;;;6.45;;
29246;SDS011;16272;48.188;9.964;2023-02-28T08:23:38;15.43;;;5.73;;
29246;SDS011;16272;48.188;9.964;2023-02-28T08:26:04;13.10;;;5.27;;
29246;SDS011;16272;48.188;9.964;2023-02-28T08:28:29;16.77;;;6.43;;
29246;SDS011;16272;48.188;9.964;2023-02-28T08:30:54;16.93;;;6.10;;
29246;SDS011;16272;48.188;9.964;2023-02-28T08:33:20;16.47;;;6.60;;
29246;SDS011;16272;48.188;9.964;2023-02-28T08:35:45;15.73;;;6.37;;
29246;SDS011;16272;48.188;9.964;2023-02-28T08:38:10;14.37;;;6.00;;
29246;SDS011;16272;48.188;9.964;2023-02-28T08:40:36;16.17;;;6.57;;
29246;SDS011;16272;48.188;9.964;2023-02-28T08:43:01;15.03;;;5.83;;
29246;SDS011;16272;48.188;9.964;2023-02-28T08:45:27;12.00;;;4.93;;
29246;SDS011;16272;48.188;9.964;2023-02-28T08:47:56;14.50;;;5.53;;
29246;SDS011;16272;48.188;9.964;2023-02-28T08:50:21;18.27;;;6.63;;
29246;SDS011;16272;48.188;9.964;2023-02-28T08:52:47;16.13;;;6.15;;
29246;SDS011;16272;48.188;9.964;2023-02-28T08:55:12;17.27;;;6.60;;
29246;SDS011;16272;48.188;9.964;2023-02-28T08:57:37;14.17;;;5.47;;
29246;SDS011;16272;48.188;9.964;2023-02-28T09:00:03;11.93;;;4.83;;
29246;SDS011;16272;48.188;9.964;2023-02-28T09:02:30;14.88;;;5.63;;
29246;SDS011;16272;48.188;9.964;2023-02-28T09:04:56;17.00;;;6.70;;
29246;SDS011;16272;48.188;9.964;2023-02-28T09:07:22;14.75;;;5.40;;
29246;SDS011;16272;48.188;9.964;2023-02-28T09:09:48;16.47;;;7.60;;
29246;SDS011;16272;48.188;9.964;2023-02-28T09:12:20;14.90;;;6.60;;
29246;SDS011;16272;48.188;9.964;2023-02-28T09:14:47;17.85;;;7.70;;
29246;SDS011;16272;48.188;9.964;2023-02-28T09:17:12;17.30;;;7.10;;
29246;SDS011;16272;48.188;9.964;2023-02-28T09:19:37;11.23;;;4.43;;
29246;SDS011;16272;48.188;9.964;2023-02-28T09:22:03;13.40;;;5.53;;
29246;SDS011;16272;48.188;9.964;2023-02-28T09:24:28;18.00;;;6.87;;
29246;SDS011;16272;48.188;9.964;2023-02-28T09:26:53;14.43;;;5.00;;
29246;SDS011;16272;48.188;9.964;2023-02-28T09:29:18;17.27;;;7.40;;
29246;SDS011;16272;48.188;9.964;2023-02-28T09:31:44;15.23;;;6.23;;
29246;SDS011;16272;48.188;9.964;2023-02-28T09:34:09;16.50;;;6.90;;
29246;SDS011;16272;48.188;9.964;2023-02-28T09:36:34;16.10;;;6.30;;
29246;SDS011;16272;48.188;9.964;2023-02-28T09:39:02;17.03;;;7.13;;
29246;SDS011;16272;48.188;9.964;2023-02-28T09:41:28;16.40;;;6.30;;
29246;SDS011;16272;48.188;9.964;2023-02-28T09:44:02;16.45;;;5.93;;
29246;SDS011;16272;48.188;9.964;2023-02-28T09:46:48;14.90;;;6.03;;
29246;SDS011;16272;48.188;9.964;2023-02-28T09:49:28;13.18;;;5.50;;
29246;SDS011;16272;48.188;9.964;2023-02-28T09:52:09;17.20;;;7.07;;
29246;SDS011;16272;48.188;9.964;2023-02-28T09:54:38;12.38;;;5.63;;
29246;SDS011;16272;48.188;9.964;2023-02-28T09:59:36;16.93;;;6.17;;
29246;SDS011;16272;48.188;9.964;2023-02-28T10:10:25;18.92;;;7.95;;
29246;SDS011;16272;48.188;9.964;2023-02-28T10:13:25;16.67;;;5.63;;
29246;SDS011;16272;48.188;9.964;2023-02-28T10:16:02;13.93;;;5.72;;
29246;SDS011;16272;48.188;9.964;2023-02-28T10:18:52;16.80;;;7.20;;
29246;SDS011;16272;48.188;9.964;2023-02-28T10:21:31;13.47;;;4.73;;
29246;SDS011;16272;48.188;9.964;2023-02-28T10:24:21;20.15;;;7.75;;
29246;SDS011;16272;48.188;9.964;2023-02-28T10:26:56;16.33;;;6.63;;
29246;SDS011;16272;48.188;9.964;2023-02-28T10:29:24;16.80;;;6.38;;
29246;SDS011;16272;48.188;9.964;2023-02-28T10:31:50;17.35;;;5.93;;
29246;SDS011;16272;48.188;9.964;2023-02-28T10:34:16;16.63;;;6.47;;
29246;SDS011;16272;48.188;9.964;2023-02-28T10:36:41;18.40;;;7.77;;
29246;SDS011;16272;48.188;9.964;2023-02-28T10:44:44;16.77;;;7.40;;
29246;SDS011;16272;48.188;9.964;2023-02-28T10:47:16;13.83;;;5.37;;
29246;SDS011;16272;48.188;9.964;2023-02-28T10:49:48;15.50;;;6.70;;
29246;SDS011;16272;48.188;9.964;2023-02-28T10:52:14;16.02;;;7.38;;
29246;SDS011;16272;48.188;9.964;2023-02-28T10:55:14;16.65;;;6.10;;
29246;SDS011;16272;48.188;9.964;2023-02-28T10:57:41;15.55;;;6.60;;
29246;SDS011;16272;48.188;9.964;2023-02-28T11:00:13;19.70;;;6.97;;
29246;SDS011;16272;48.188;9.964;2023-02-28T11:02:40;13.57;;;5.97;;
29246;SDS011;16272;48.188;9.964;2023-02-28T11:05:22;11.20;;;4.60;;
29246;SDS011;16272;48.188;9.964;2023-02-28T11:07:56;12.27;;;5.25;;
29246;SDS011;16272;48.188;9.964;2023-02-28T11:10:29;16.38;;;6.97;;
29246;SDS011;16272;48.188;9.964;2023-02-28T11:12:59;14.50;;;5.97;;
29246;SDS011;16272;48.188;9.964;2023-02-28T11:15:27;15.65;;;6.50;;
29246;SDS011;16272;48.188;9.964;2023-02-28T11:17:55;12.33;;;3.87;;
29246;SDS011;16272;48.188;9.964;2023-02-28T11:20:25;13.20;;;6.45;;
29246;SDS011;16272;48.188;9.964;2023-02-28T11:22:53;13.35;;;5.38;;
29246;SDS011;16272;48.188;9.964;2023-02-28T11:25:25;12.00;;;5.22;;
29246;SDS011;16272;48.188;9.964;2023-02-28T11:27:52;15.20;;;7.63;;
29246;SDS011;16272;48.188;9.964;2023-02-28T11:32:52;18.77;;;6.07;;
29246;SDS011;16272;48.188;9.964;2023-02-28T11:35:21;14.57;;;5.97;;
29246;SDS011;16272;48.188;9.964;2023-02-28T11:37:50;15.85;;;6.75;;
29246;SDS011;16272;48.188;9.964;2023-02-28T11:45:56;13.70;;;5.82;;
29246;SDS011;16272;48.188;9.964;2023-02-28T11:51:28;13.48;;;5.30;;
29246;SDS011;16272;48.188;9.964;2023-02-28T12:07:19;16.17;;;6.50;;
29246;SDS011;16272;48.188;9.964;2023-02-28T12:12:43;16.45;;;7.43;;
29246;SDS011;16272;48.188;9.964;2023-02-28T12:17:45;13.73;;;6.23;;
29246;SDS011;16272;48.188;9.964;2023-02-28T12:20:26;16.98;;;7.63;;
29246;SDS011;16272;48.188;9.964;2023-02-28T12:23:22;15.40;;;6.50;;
29246;SDS011;16272;48.188;9.964;2023-02-28T12:26:10;16.83;;;7.95;;
29246;SDS011;16272;48.188;9.964;2023-02-28T12:28:42;15.98;;;6.93;;
29246;SDS011;16272;48.188;9.964;2023-02-28T12:31:16;14.57;;;6.50;;
29246;SDS011;16272;48.188;9.964;2023-02-28T12:33:46;17.42;;;7.95;;
29246;SDS011;16272;48.188;9.964;2023-02-28T12:36:16;9.98;;;4.20;;
29246;SDS011;16272;48.188;9.964;2023-02-28T12:38:56;17.27;;;7.90;;
29246;SDS011;16272;48.188;9.964;2023-02-28T12:41:33;16.40;;;7.82;;
29246;SDS011;16272;48.188;9.964;2023-02-28T12:44:02;17.70;;;7.90;;
29246;SDS011;16272;48.188;9.964;2023-02-28T12:46:37;12.65;;;5.63;;
29246;SDS011;16272;48.188;9.964;2023-02-28T12:49:08;17.13;;;7.10;;
29246;SDS011;16272;48.188;9.964;2023-02-28T12:51:38;16.55;;;7.80;;
29246;SDS011;16272;48.188;9.964;2023-02-28T12:54:15;14.80;;;6.83;;
29246;SDS011;16272;48.188;9.964;2023-02-28T12:56:43;16.27;;;7.80;;
29246;SDS011;16272;48.188;9.964;2023-02-28T12:59:16;15.93;;;5.95;;
29246;SDS011;16272;48.188;9.964;2023-02-28T13:10:48;17.05;;;7.47;;
29246;SDS011;16272;48.188;9.964;2023-02-28T13:13:19;13.13;;;5.53;;
29246;SDS011;16272;48.188;9.964;2023-02-28T13:16:03;16.38;;;7.32;;
29246;SDS011;16272;48.188;9.964;2023-02-28T13:18:32;17.95;;;7.35;;
29246;SDS011;16272;48.188;9.964;2023-02-28T13:21:27;15.60;;;7.17;;
29246;SDS011;16272;48.188;9.964;2023-02-28T13:24:02;13.15;;;5.05;;
29246;SDS011;16272;48.188;9.964;2023-02-28T13:32:18;14.32;;;6.43;;
29246;SDS011;16272;48.188;9.964;2023-02-28T13:47:27;14.60;;;6.15;;
29246;SDS011;16272;48.188;9.964;2023-02-28T13:50:21;14.03;;;5.73;;
29246;SDS011;16272;48.188;9.964;2023-02-28T14:01:14;13.82;;;6.82;;
29246;SDS011;16272;48.188;9.964;2023-02-28T14:03:58;15.00;;;6.27;;
29246;SDS011;16272;48.188;9.964;2023-02-28T14:06:39;13.93;;;6.53;;
29246;SDS011;16272;48.188;9.964;2023-02-28T14:11:51;14.68;;;7.03;;
29246;SDS011;16272;48.188;9.964;2023-02-28T14:17:03;12.90;;;6.03;;
29246;SDS011;16272;48.188;9.964;2023-02-28T14:19:32;17.48;;;6.40;;
29246;SDS011;16272;48.188;9.964;2023-02-28T14:38:33;14.85;;;6.80;;
29246;SDS011;16272;48.188;9.964;2023-02-28T14:41:04;15.98;;;6.70;;
29246;SDS011;16272;48.188;9.964;2023-02-28T14:43:46;15.27;;;6.57;;
29246;SDS011;16272;48.188;9.964;2023-02-28T14:46:13;17.23;;;6.70;;
29246;SDS011;16272;48.188;9.964;2023-02-28T14:48:39;14.88;;;6.85;;
29246;SDS011;16272;48.188;9.964;2023-02-28T14:51:04;14.83;;;5.93;;
29246;SDS011;16272;48.188;9.964;2023-02-28T14:53:30;15.30;;;6.60;;
29246;SDS011;16272;48.188;9.964;2023-02-28T14:56:01;13.52;;;5.88;;
29246;SDS011;16272;48.188;9.964;2023-02-28T15:00:55;16.08;;;6.13;;
29246;SDS011;16272;48.188;9.964;2023-02-28T15:03:24;13.33;;;6.43;;
29246;SDS011;16272;48.188;9.964;2023-02-28T15:05:58;14.85;;;5.93;;
29246;SDS011;16272;48.188;9.964;2023-02-28T15:08:28;13.85;;;6.18;;
29246;SDS011;16272;48.188;9.964;2023-02-28T15:11:00;17.08;;;6.80;;
29246;SDS011;16272;48.188;9.964;2023-02-28T15:13:42;16.02;;;6.80;;
29246;SDS011;16272;48.188;9.964;2023-02-28T15:16:16;14.03;;;5.60;;
29246;SDS011;16272;48.188;9.964;2023-02-28T15:18:46;14.95;;;6.07;;
29246;SDS011;16272;48.188;9.964;2023-02-28T15:23:49;16.80;;;7.45;;
29246;SDS011;16272;48.188;9.964;2023-02-28T15:26:20;14.52;;;6.70;;
29246;SDS011;16272;48.188;9.964;2023-02-28T15:28:51;12.03;;;5.57;;
29246;SDS011;16272;48.188;9.964;2023-02-28T15:31:27;16.35;;;7.00;;
29246;SDS011;16272;48.188;9.964;2023-02-28T15:33:57;16.10;;;7.22;;
29246;SDS011;16272;48.188;9.964;2023-02-28T15:36:31;16.25;;;6.43;;
29246;SDS011;16272;48.188;9.964;2023-02-28T15:38:59;14.23;;;6.35;;
29246;SDS011;16272;48.188;9.964;2023-02-28T15:41:26;17.47;;;6.83;;
29246;SDS011;16272;48.188;9.964;2023-02-28T15:44:16;14.70;;;5.88;;
29246;SDS011;16272;48.188;9.964;2023-02-28T15:49:20;15.27;;;6.63;;
29246;SDS011;16272;48.188;9.964;2023-02-28T15:51:49;13.57;;;5.15;;
29246;SDS011;16272;48.188;9.964;2023-02-28T15:54:21;16.60;;;6.65;;
29246;SDS011;16272;48.188;9.964;2023-02-28T15:56:52;17.33;;;6.70;;
29246;SDS011;16272;48.188;9.964;2023-02-28T15:59:21;15.27;;;6.43;;
29246;SDS011;16272;48.188;9.964;2023-02-28T16:07:52;16.83;;;6.65;;
29246;SDS011;16272;48.188;9.964;2023-02-28T16:10:20;15.50;;;6.38;;
29246;SDS011;16272;48.188;9.964;2023-02-28T16:12:49;15.20;;;5.93;;
29246;SDS011;16272;48.188;9.964;2023-02-28T16:15:25;15.18;;;6.18;;
29246;SDS011;16272;48.188;9.964;2023-02-28T16:17:53;13.70;;;5.53;;
29246;SDS011;16272;48.188;9.964;2023-02-28T16:20:20;17.75;;;6.88;;
29246;SDS011;16272;48.188;9.964;2023-02-28T16:22:48;15.45;;;6.22;;
29246;SDS011;16272;48.188;9.964;2023-02-28T16:25:14;18.03;;;7.77;;
29246;SDS011;16272;48.188;9.964;2023-02-28T16:27:40;17.60;;;7.55;;
29246;SDS011;16272;48.188;9.964;2023-02-28T16:30:09;16.15;;;6.40;;
29246;SDS011;16272;48.188;9.964;2023-02-28T16:32:42;16.75;;;7.05;;
29246;SDS011;16272;48.188;9.964;2023-02-28T16:35:09;17.25;;;7.28;;
29246;SDS011;16272;48.188;9.964;2023-02-28T16:37:35;15.67;;;6.57;;
29246;SDS011;16272;48.188;9.964;2023-02-28T16:40:01;17.67;;;7.45;;
29246;SDS011;16272;48.188;9.964;2023-02-28T16:42:27;14.90;;;6.50;;
29246;SDS011;16272;48.188;9.964;2023-02-28T16:44:53;17.00;;;6.63;;
29246;SDS011;16272;48.188;9.964;2023-02-28T16:47:20;16.42;;;6.95;;
29246;SDS011;16272;48.188;9.964;2023-02-28T16:49:46;18.33;;;7.65;;
29246;SDS011;16272;48.188;9.964;2023-02-28T16:52:12;17.83;;;7.15;;
29246;SDS011;16272;48.188;9.964;2023-02-28T16:54:39;18.27;;;7.03;;
29246;SDS011;16272;48.188;9.964;2023-02-28T16:57:05;14.77;;;5.97;;
29246;SDS011;16272;48.188;9.964;2023-02-28T16:59:40;18.38;;;7.55;;
29246;SDS011;16272;48.188;9.964;2023-02-28T17:02:12;19.20;;;7.83;;
29246;SDS011;16272;48.188;9.964;2023-02-28T17:04:39;17.17;;;6.82;;
29246;SDS011;16272;48.188;9.964;2023-02-28T17:07:04;17.70;;;7.20;;
29246;SDS011;16272;48.188;9.964;2023-02-28T17:09:29;17.57;;;7.27;;
29246;SDS011;16272;48.188;9.964;2023-02-28T17:11:55;16.17;;;7.17;;
29246;SDS011;16272;48.188;9.964;2023-02-28T17:14:21;18.67;;;7.07;;
29246;SDS011;16272;48.188;9.964;2023-02-28T17:16:48;17.17;;;6.97;;
29246;SDS011;16272;48.188;9.964;2023-02-28T17:19:14;18.73;;;7.30;;
29246;SDS011;16272;48.188;9.964;2023-02-28T17:21:42;18.63;;;7.10;;